Terminal Aerodrome Forecast
Issued by NWS Sioux Falls, SD

Home | Current Version | Previous Version | Graphics & Text | Print | Product List | Glossary Off
Versions: 1 2 3 4 5 6 7 8 9 10 11 12 13 14 15 16 17 18 19 20 21 22 23 24 25 26 27 28 29 30 31 32 33 34

000
FTUS43 KFSD 242010 AAB
TAFSUX
TAF AMD
KSUX 242010Z 2420/2518 15013G19KT P6SM SCT050
     FM250000 13012KT P6SM BKN020
     FM250200 14010KT P6SM OVC015
     FM250400 11009KT P6SM OVC012
      TEMPO 2505/2507 4SM -SHRA
     FM250700 05010KT 5SM BR OVC008
      TEMPO 2507/2510 4SM -SHRA BR OVC015
     FM251500 06013KT P6SM OVC014
     FM251700 07014KT P6SM BKN022=

USA.gov is the U.S. government's official web portal to all federal, state and local government web resources and services.